Time;durP1;ratioP1;P1;durP2;ratioP2;P2;SDS_P1;SDS_P2;PMS_P1;PMS_P2;Temp;Humidity;BMP_temperature;BMP_pressure;BME280_temperature;BME280_humidity;BME280_pressure;Samples;Min_cycle;Max_cycle;Signal;HPM_P1;HPM_P2
2021/06/07 00:04:15;;;;;;;3.97;2.70;;;21.80;62.30;;;;;;10418494;28;20391;-61
2021/06/07 00:09:18;;;;;;;3.75;1.90;;;21.80;62.30;;;;;;10419977;28;20033;-61
2021/06/07 00:14:22;;;;;;;3.42;2.10;;;21.80;62.30;;;;;;10418359;28;20057;-60
2021/06/07 00:19:27;;;;;;;2.35;2.15;;;21.80;62.20;;;;;;10418894;28;20040;-60
2021/06/07 00:24:28;;;;;;;3.33;2.40;;;21.70;62.10;;;;;;10419083;28;20482;-60
2021/06/07 00:29:29;;;;;;;2.58;2.08;;;21.70;62.00;;;;;;10419008;28;20033;-61
2021/06/07 00:34:29;;;;;;;3.70;2.08;;;21.70;62.00;;;;;;10428481;28;20025;-61
2021/06/07 00:39:30;;;;;;;4.18;2.40;;;21.70;61.90;;;;;;10416059;28;20045;-60
2021/06/07 00:44:31;;;;;;;4.30;2.75;;;21.70;61.80;;;;;;10428221;28;20363;-61
2021/06/07 00:49:32;;;;;;;2.95;2.22;;;21.70;61.80;;;;;;10414413;28;20373;-60
2021/06/07 00:54:32;;;;;;;2.55;2.20;;;21.70;61.80;;;;;;10414107;28;20033;-60
2021/06/07 00:59:33;;;;;;;2.85;2.10;;;21.70;61.80;;;;;;10414342;28;20037;-60
2021/06/07 01:04:34;;;;;;;2.90;1.92;;;21.70;61.70;;;;;;10414826;28;20041;-60
2021/06/07 01:09:34;;;;;;;2.47;2.00;;;21.70;61.60;;;;;;10415187;28;20025;-60
2021/06/07 01:14:35;;;;;;;3.17;2.67;;;21.70;61.60;;;;;;10414953;28;20537;-60
2021/06/07 01:19:36;;;;;;;3.13;2.42;;;21.70;61.60;;;;;;10414797;28;20541;-61
2021/06/07 01:24:36;;;;;;;2.20;2.00;;;21.60;61.50;;;;;;10414323;28;20030;-60
2021/06/07 01:29:38;;;;;;;3.80;2.17;;;21.60;61.40;;;;;;10398660;28;20091;-60
2021/06/07 01:34:39;;;;;;;3.63;2.50;;;21.60;61.40;;;;;;10406961;28;20034;-60
2021/06/07 01:39:39;;;;;;;2.63;2.08;;;21.60;61.40;;;;;;10412564;28;20057;-60
2021/06/07 01:44:40;;;;;;;2.33;2.00;;;21.60;61.30;;;;;;10425551;28;20034;-61
2021/06/07 01:49:43;;;;;;;2.92;2.28;;;21.60;61.40;;;;;;10413449;28;20056;-61
2021/06/07 01:54:44;;;;;;;2.65;2.08;;;21.60;61.30;;;;;;10413169;28;20033;-60
2021/06/07 01:59:45;;;;;;;3.67;2.90;;;21.60;61.20;;;;;;10413147;28;20033;-60
2021/06/07 02:04:46;;;;;;;3.78;1.90;;;21.50;61.20;;;;;;10412509;28;20029;-60
2021/06/07 02:09:46;;;;;;;3.03;1.92;;;21.50;61.10;;;;;;10412735;28;20030;-59
2021/06/07 02:14:47;;;;;;;2.70;2.15;;;21.50;61.10;;;;;;10411220;28;20095;-60
2021/06/07 02:19:48;;;;;;;2.33;2.00;;;21.50;61.10;;;;;;10412702;28;20124;-61
2021/06/07 02:24:48;;;;;;;2.30;2.05;;;21.50;61.00;;;;;;10412019;28;20037;-60
2021/06/07 02:29:49;;;;;;;2.45;2.10;;;21.50;60.90;;;;;;10404042;28;20134;-60
2021/06/07 02:34:50;;;;;;;2.08;1.73;;;21.50;60.90;;;;;;10410643;28;20060;-60
2021/06/07 02:39:51;;;;;;;2.17;1.63;;;21.50;60.90;;;;;;10411330;28;20531;-59
2021/06/07 02:44:52;;;;;;;3.42;1.95;;;21.50;60.90;;;;;;10422688;28;20428;-61
2021/06/07 02:49:53;;;;;;;2.42;1.98;;;21.50;60.80;;;;;;10411823;28;20036;-61
2021/06/07 02:54:54;;;;;;;2.42;1.90;;;21.50;60.80;;;;;;10411182;28;20500;-60
2021/06/07 02:59:55;;;;;;;2.72;2.10;;;21.40;60.80;;;;;;10411677;28;20033;-60
2021/06/07 03:04:55;;;;;;;3.10;1.90;;;21.40;60.80;;;;;;10410705;28;20053;-60
2021/06/07 03:09:56;;;;;;;2.63;2.40;;;21.50;60.80;;;;;;10408746;28;20024;-60
2021/06/07 03:14:57;;;;;;;2.42;1.90;;;21.40;60.70;;;;;;10408261;28;20052;-60
2021/06/07 03:19:57;;;;;;;2.55;2.00;;;21.40;60.70;;;;;;10410502;28;20038;-61
2021/06/07 03:24:58;;;;;;;2.22;2.00;;;21.40;60.60;;;;;;10412923;28;20477;-61
2021/06/07 03:29:59;;;;;;;2.63;2.08;;;21.40;60.60;;;;;;10400224;28;20363;-61
2021/06/07 03:34:59;;;;;;;4.60;2.17;;;21.40;60.60;;;;;;10413028;28;20029;-60
2021/06/07 03:40:01;;;;;;;2.20;1.65;;;21.40;60.60;;;;;;10413302;28;20056;-60
2021/06/07 03:45:05;;;;;;;5.97;2.20;;;21.40;60.60;;;;;;10425760;28;20488;-60
2021/06/07 03:50:09;;;;;;;1.95;1.67;;;21.40;60.60;;;;;;10413263;28;20022;-60
2021/06/07 03:55:14;;;;;;;2.17;1.90;;;21.40;60.60;;;;;;10418799;28;20087;-60
2021/06/07 04:00:19;;;;;;;2.25;1.52;;;21.30;60.50;;;;;;10418737;28;20127;-60
2021/06/07 04:05:20;;;;;;;2.60;1.88;;;21.30;60.50;;;;;;10421088;28;20044;-60
2021/06/07 04:10:24;;;;;;;3.17;1.88;;;21.30;60.50;;;;;;10419925;28;20080;-60
2021/06/07 04:15:28;;;;;;;2.03;1.60;;;21.30;60.50;;;;;;10419079;28;20099;-60
2021/06/07 04:20:31;;;;;;;2.35;1.90;;;21.30;60.50;;;;;;10417247;28;20033;-60
2021/06/07 04:25:32;;;;;;;2.22;1.88;;;21.30;60.50;;;;;;10418194;28;20446;-60
2021/06/07 04:30:32;;;;;;;3.35;2.03;;;21.30;60.60;;;;;;10415946;28;20029;-60
2021/06/07 04:35:33;;;;;;;2.28;1.63;;;21.30;60.70;;;;;;10418596;28;20065;-61
2021/06/07 04:40:38;;;;;;;2.00;1.67;;;21.20;60.70;;;;;;10418324;28;20517;-60
2021/06/07 04:45:43;;;;;;;4.78;1.60;;;21.30;61.20;;;;;;10429704;28;20041;-59
2021/06/07 04:50:45;;;;;;;1.70;1.52;;;21.30;61.90;;;;;;10418549;28;20385;-58
2021/06/07 04:55:51;;;;;;;3.30;2.40;;;21.30;61.80;;;;;;10417865;28;20030;-60
2021/06/07 05:00:57;;;;;;;3.00;2.03;;;21.30;61.60;;;;;;10412742;28;20500;-61
2021/06/07 05:06:00;;;;;;;6.68;2.58;;;21.30;61.80;;;;;;10416415;28;20413;-59
2021/06/07 05:11:01;;;;;;;2.60;1.80;;;21.30;61.80;;;;;;10416473;28;20032;-58
2021/06/07 05:16:03;;;;;;;3.78;1.88;;;21.40;62.10;;;;;;10416441;28;20033;-60
2021/06/07 05:21:04;;;;;;;4.05;1.77;;;21.40;62.30;;;;;;10416567;28;20037;-61
2021/06/07 05:26:05;;;;;;;3.38;1.55;;;21.40;62.60;;;;;;10416710;28;20049;-61
2021/06/07 05:31:06;;;;;;;5.15;2.30;;;21.40;62.50;;;;;;10418527;28;20017;-60
2021/06/07 05:36:07;;;;;;;5.20;1.98;;;21.30;62.10;;;;;;10416352;28;20033;-61
2021/06/07 05:41:07;;;;;;;5.65;2.08;;;21.40;62.10;;;;;;10418181;28;20116;-58
2021/06/07 05:46:08;;;;;;;3.25;2.20;;;21.40;61.80;;;;;;10424357;28;20112;-59
2021/06/07 05:51:09;;;;;;;10.02;1.77;;;21.40;61.40;;;;;;10414880;28;20025;-60
2021/06/07 05:56:09;;;;;;;6.85;2.08;;;21.40;61.80;;;;;;10415677;28;20045;-60
2021/06/07 06:01:10;;;;;;;5.25;2.15;;;21.40;61.90;;;;;;10415644;28;20167;-59
2021/06/07 06:06:11;;;;;;;10.50;2.65;;;21.40;61.80;;;;;;10405323;28;20108;-59
2021/06/07 06:11:11;;;;;;;11.07;2.80;;;21.30;61.20;;;;;;10405815;28;20136;-59
2021/06/07 06:16:12;;;;;;;4.72;1.90;;;21.30;61.00;;;;;;10406163;28;20151;-59
2021/06/07 06:21:13;;;;;;;4.72;1.67;;;21.30;61.20;;;;;;10406983;28;20029;-59
2021/06/07 06:26:14;;;;;;;8.77;2.45;;;21.20;61.20;;;;;;10407255;28;20029;-59
2021/06/07 06:31:16;;;;;;;4.88;1.90;;;21.30;61.30;;;;;;10407266;28;20469;-58
2021/06/07 06:36:18;;;;;;;7.15;2.17;;;21.30;61.30;;;;;;10407180;28;20029;-59
2021/06/07 06:41:18;;;;;;;4.70;2.10;;;21.20;61.30;;;;;;10406808;28;20033;-59
2021/06/07 06:46:19;;;;;;;4.97;2.17;;;21.20;61.30;;;;;;10406336;28;20112;-59
2021/06/07 06:51:20;;;;;;;4.72;2.00;;;21.20;61.40;;;;;;10406562;28;20034;-59
2021/06/07 06:56:21;;;;;;;2.38;1.60;;;21.20;61.60;;;;;;10405813;28;20039;-60
2021/06/07 07:01:23;;;;;;;4.00;1.42;;;21.30;61.60;;;;;;10405405;28;20033;-59
2021/06/07 07:06:25;;;;;;;3.75;1.55;;;21.30;61.30;;;;;;10406601;28;20045;-59
2021/06/07 07:11:25;;;;;;;2.42;1.60;;;21.30;61.20;;;;;;10399393;28;20025;-59
2021/06/07 07:16:26;;;;;;;3.88;1.60;;;21.30;61.00;;;;;;10406338;28;20560;-59
2021/06/07 07:21:27;;;;;;;3.50;1.58;;;21.30;61.00;;;;;;10406921;28;20045;-59
2021/06/07 07:26:27;;;;;;;4.80;1.40;;;21.30;60.80;;;;;;10409253;28;20172;-59
2021/06/07 07:31:28;;;;;;;4.43;1.50;;;21.30;60.80;;;;;;10414442;28;20037;-59
2021/06/07 07:36:29;;;;;;;3.13;1.52;;;21.30;60.70;;;;;;10412671;28;20060;-59
2021/06/07 07:41:30;;;;;;;2.28;1.65;;;21.30;60.80;;;;;;10418629;28;20128;-59
2021/06/07 07:46:30;;;;;;;2.85;1.38;;;21.30;60.90;;;;;;10413872;28;20036;-59
2021/06/07 07:51:31;;;;;;;1.95;1.60;;;21.30;61.40;;;;;;10413570;28;20040;-59
2021/06/07 07:56:32;;;;;;;3.17;1.20;;;21.30;60.70;;;;;;10413527;28;20029;-59
2021/06/07 08:01:33;;;;;;;2.33;1.63;;;21.40;60.80;;;;;;10401011;28;20040;-59
2021/06/07 08:06:34;;;;;;;2.25;1.30;;;21.40;60.70;;;;;;10413262;28;20513;-59
2021/06/07 08:11:35;;;;;;;2.50;1.45;;;21.40;60.80;;;;;;10412212;28;20037;-59
2021/06/07 08:16:36;;;;;;;2.92;1.30;;;21.40;60.70;;;;;;10411168;28;20128;-59
2021/06/07 08:21:36;;;;;;;2.83;1.42;;;21.40;60.80;;;;;;10412174;28;20056;-60
2021/06/07 08:26:37;;;;;;;2.30;1.20;;;21.40;60.70;;;;;;10411957;28;20049;-60
2021/06/07 08:31:38;;;;;;;10.07;1.92;;;21.40;60.70;;;;;;10398585;28;20037;-59
2021/06/07 08:36:39;;;;;;;4.00;1.40;;;21.40;60.70;;;;;;10411443;28;20034;-59
2021/06/07 08:41:40;;;;;;;2.13;1.50;;;21.40;60.80;;;;;;10418262;28;20409;-60
2021/06/07 08:46:41;;;;;;;1.38;1.20;;;21.40;60.80;;;;;;10415096;28;20036;-58
2021/06/07 08:51:41;;;;;;;2.95;2.45;;;21.40;60.90;;;;;;10411535;28;20052;-58
2021/06/07 08:56:43;;;;;;;2.08;1.30;;;21.40;60.80;;;;;;10417438;28;20148;-58
2021/06/07 09:01:45;;;;;;;2.20;1.33;;;21.50;60.80;;;;;;10409069;28;20045;-56
2021/06/07 09:06:49;;;;;;;3.15;1.25;;;21.50;61.00;;;;;;10401967;28;20032;-59
2021/06/07 09:12:00;;;;;;;1.83;1.33;;;21.50;61.10;;;;;;10411134;28;20477;-59
2021/06/07 09:17:13;;;;;;;2.17;1.38;;;21.50;60.90;;;;;;10410606;28;20421;-60
2021/06/07 09:22:29;;;;;;;2.92;1.63;;;21.50;60.90;;;;;;10409009;28;20041;-60
2021/06/07 09:27:30;;;;;;;2.70;1.92;;;21.50;67.20;;;;;;10410576;28;20055;-60
2021/06/07 09:32:31;;;;;;;2.28;1.50;;;21.60;67.30;;;;;;10410219;28;20033;-58
2021/06/07 09:37:32;;;;;;;4.93;1.70;;;21.60;66.20;;;;;;10409488;28;20048;-58
2021/06/07 09:42:33;;;;;;;3.08;1.48;;;21.50;63.20;;;;;;10417250;28;20677;-58
2021/06/07 09:47:35;;;;;;;2.45;1.40;;;21.50;62.00;;;;;;10407510;28;20034;-59
2021/06/07 09:52:44;;;;;;;3.83;1.20;;;21.50;61.80;;;;;;10406049;28;20032;-59
2021/06/07 09:58:00;;;;;;;2.05;1.33;;;21.50;61.60;;;;;;10407689;28;20049;-59
2021/06/07 10:03:23;;;;;;;3.45;1.83;;;21.50;62.00;;;;;;10405588;28;20064;-58
2021/06/07 10:08:26;;;;;;;3.63;1.67;;;21.50;61.90;;;;;;10406508;28;20033;-59
2021/06/07 10:13:33;;;;;;;3.85;1.77;;;21.60;62.10;;;;;;10394641;28;20040;-59
2021/06/07 10:18:34;;;;;;;1.88;1.20;;;21.60;62.00;;;;;;10407535;28;20129;-59
2021/06/07 10:23:35;;;;;;;2.03;1.35;;;21.60;61.90;;;;;;10407549;28;20033;-57
2021/06/07 10:28:44;;;;;;;2.72;1.77;;;21.60;61.70;;;;;;10408003;28;20025;-59
2021/06/07 10:33:59;;;;;;;3.42;1.80;;;21.60;61.70;;;;;;10407048;28;20112;-59
2021/06/07 10:39:16;;;;;;;1.73;1.38;;;21.60;62.00;;;;;;10407193;28;20056;-57
2021/06/07 10:44:36;;;;;;;1.90;1.48;;;21.60;61.90;;;;;;10408880;28;20497;-59
2021/06/07 10:49:48;;;;;;;2.05;1.48;;;21.60;62.10;;;;;;10406162;28;20486;-56
2021/06/07 10:55:11;;;;;;;3.13;1.63;;;21.70;62.20;;;;;;10394841;28;20184;-59
2021/06/07 11:00:28;;;;;;;2.15;1.70;;;21.70;62.40;;;;;;10409123;28;20454;-58
2021/06/07 11:05:32;;;;;;;1.73;1.40;;;21.70;62.60;;;;;;10414277;28;20037;-59
2021/06/07 11:10:39;;;;;;;5.00;1.92;;;21.70;62.50;;;;;;10415222;28;20021;-58
2021/06/07 11:15:52;;;;;;;4.45;1.67;;;21.80;62.80;;;;;;10415662;28;20033;-59
2021/06/07 11:21:13;;;;;;;6.30;1.70;;;21.80;62.80;;;;;;10415101;28;20029;-59
2021/06/07 11:26:21;;;;;;;2.42;1.73;;;21.80;62.80;;;;;;10410555;28;20053;-58
2021/06/07 11:31:22;;;;;;;2.03;1.55;;;21.80;62.60;;;;;;10414804;28;20573;-58
2021/06/07 11:36:48;;;;;;;1.90;1.30;;;21.80;62.50;;;;;;10414432;28;20044;-58
2021/06/07 11:42:04;;;;;;;1.67;1.48;;;21.80;62.30;;;;;;10422334;28;20049;-58
2021/06/07 11:47:04;;;;;;;2.80;1.48;;;21.80;62.30;;;;;;10414094;28;20029;-59
2021/06/07 11:52:10;;;;;;;3.33;1.67;;;21.80;62.30;;;;;;10413751;28;20469;-58
2021/06/07 11:57:12;;;;;;;3.80;1.80;;;21.80;62.40;;;;;;10413785;28;20029;-58
2021/06/07 12:02:17;;;;;;;2.80;1.55;;;21.90;62.40;;;;;;10412971;28;20043;-59
2021/06/07 12:07:19;;;;;;;3.53;1.60;;;21.90;62.30;;;;;;10413281;28;20025;-58
2021/06/07 12:12:20;;;;;;;1.75;1.45;;;21.90;62.30;;;;;;10411341;28;20075;-59
2021/06/07 12:17:25;;;;;;;2.25;1.70;;;21.90;62.20;;;;;;10412896;28;20108;-58
2021/06/07 12:22:33;;;;;;;3.25;1.83;;;21.90;62.30;;;;;;10412637;28;20107;-56
2021/06/07 12:32:53;;;;;;;1.58;1.30;;;22.00;62.30;;;;;;10413030;28;20049;-58
2021/06/07 12:38:07;;;;;;;1.60;1.40;;;22.00;62.10;;;;;;10411922;28;20138;-58
2021/06/07 12:43:08;;;;;;;3.20;1.55;;;22.00;62.20;;;;;;10420878;28;20045;-58
2021/06/07 12:48:16;;;;;;;2.70;1.40;;;22.00;62.20;;;;;;10411930;28;20041;-58
2021/06/07 12:53:21;;;;;;;2.63;1.35;;;22.00;62.20;;;;;;10411689;28;20040;-58
2021/06/07 12:58:26;;;;;;;2.10;1.58;;;22.00;62.20;;;;;;10410894;28;20029;-57
2021/06/07 13:03:54;;;;;;;1.80;1.48;;;22.10;62.70;;;;;;10410870;28;20511;-59
2021/06/07 13:09:04;;;;;;;1.83;1.33;;;22.10;62.20;;;;;;10410954;28;20168;-58
2021/06/07 13:14:28;;;;;;;2.30;1.50;;;22.10;62.20;;;;;;10410910;28;20036;-59
2021/06/07 13:19:30;;;;;;;2.25;1.77;;;22.10;62.10;;;;;;10412987;28;20541;-59
2021/06/07 13:24:35;;;;;;;2.58;1.60;;;22.10;62.10;;;;;;10416626;28;20030;-58
2021/06/07 13:29:42;;;;;;;2.03;1.63;;;22.10;62.10;;;;;;10416889;28;20033;-59
2021/06/07 13:35:02;;;;;;;1.42;1.33;;;22.10;62.10;;;;;;10417011;28;20037;-59
2021/06/07 13:40:24;;;;;;;1.45;1.30;;;22.10;62.10;;;;;;10416233;28;20405;-59
2021/06/07 13:45:28;;;;;;;2.47;1.60;;;22.10;62.00;;;;;;10424120;28;20029;-59
2021/06/07 13:50:41;;;;;;;2.00;1.42;;;22.10;62.00;;;;;;10416196;28;20112;-58
2021/06/07 13:55:46;;;;;;;1.92;1.40;;;22.10;62.00;;;;;;10415830;28;20381;-59
2021/06/07 14:00:53;;;;;;;1.92;1.40;;;22.10;62.10;;;;;;10415701;28;20614;-58
2021/06/07 14:06:00;;;;;;;2.30;1.52;;;22.20;62.00;;;;;;10415536;28;20120;-58
2021/06/07 14:11:08;;;;;;;1.85;1.70;;;22.20;62.00;;;;;;10414042;28;20045;-58
2021/06/07 14:16:10;;;;;;;2.08;1.42;;;22.10;61.90;;;;;;10415244;28;20037;-59
2021/06/07 14:21:16;;;;;;;4.28;1.80;;;22.10;61.80;;;;;;10414977;28;20040;-58
2021/06/07 14:26:21;;;;;;;2.38;1.60;;;22.20;62.00;;;;;;10414807;28;20113;-58
2021/06/07 14:31:22;;;;;;;2.55;1.40;;;22.10;61.80;;;;;;10413288;28;20025;-58
2021/06/07 14:36:23;;;;;;;2.53;1.80;;;22.10;61.80;;;;;;10414185;28;20393;-58
2021/06/07 14:41:24;;;;;;;2.53;1.73;;;22.10;61.80;;;;;;10420081;28;20053;-59
2021/06/07 14:46:25;;;;;;;2.53;2.10;;;22.10;61.80;;;;;;10416801;28;20025;-59
2021/06/07 14:51:26;;;;;;;2.15;1.77;;;22.10;61.80;;;;;;10414449;28;20108;-59
2021/06/07 14:56:27;;;;;;;2.13;1.45;;;22.10;61.90;;;;;;10412658;28;20075;-59
2021/06/07 15:01:27;;;;;;;2.92;1.70;;;22.10;61.70;;;;;;10414106;28;20421;-58
2021/06/07 15:06:30;;;;;;;2.47;1.50;;;22.10;61.80;;;;;;10413966;28;20042;-59
2021/06/07 15:11:32;;;;;;;1.73;1.30;;;22.10;61.70;;;;;;10414133;28;20079;-59
2021/06/07 15:16:33;;;;;;;1.27;1.15;;;22.10;61.60;;;;;;10413520;28;20068;-58
2021/06/07 15:21:33;;;;;;;1.60;1.42;;;22.10;61.70;;;;;;10413422;28;20502;-58
2021/06/07 15:26:34;;;;;;;1.80;1.67;;;22.10;61.80;;;;;;10413590;28;20469;-59
2021/06/07 15:31:35;;;;;;;1.70;1.38;;;22.10;61.80;;;;;;10413439;28;20021;-59
2021/06/07 15:36:36;;;;;;;1.88;1.63;;;22.10;61.70;;;;;;10413252;28;20536;-59
2021/06/07 15:41:36;;;;;;;2.25;1.73;;;22.00;61.90;;;;;;10419354;28;20124;-58
2021/06/07 15:46:37;;;;;;;2.17;1.58;;;22.10;61.80;;;;;;10414316;28;20063;-59
2021/06/07 15:51:38;;;;;;;2.42;1.50;;;22.00;61.80;;;;;;10420272;28;20381;-58
2021/06/07 15:56:39;;;;;;;1.73;1.58;;;22.00;61.90;;;;;;10420185;28;20032;-59
2021/06/07 16:01:39;;;;;;;2.35;1.63;;;22.00;61.90;;;;;;10420246;28;20448;-59
2021/06/07 16:06:40;;;;;;;2.28;1.40;;;22.10;61.90;;;;;;10417963;28;20183;-56
2021/06/07 16:11:41;;;;;;;2.33;1.63;;;22.10;61.90;;;;;;10406383;28;20144;-57
2021/06/07 16:16:48;;;;;;;8.40;2.92;;;22.00;61.20;;;;;;10417052;28;20061;-57
2021/06/07 16:21:48;;;;;;;4.45;2.13;;;22.10;62.50;;;;;;10419671;28;20037;-58
2021/06/07 16:26:49;;;;;;;4.70;1.75;;;22.10;61.00;;;;;;10419213;28;20397;-56
2021/06/07 16:31:50;;;;;;;7.05;2.17;;;22.10;61.10;;;;;;10419643;28;20025;-56
2021/06/07 16:36:51;;;;;;;8.32;2.10;;;22.20;62.20;;;;;;10419131;28;20032;-57
2021/06/07 16:41:52;;;;;;;4.80;2.50;;;22.20;62.60;;;;;;10432301;28;20110;-58
2021/06/07 16:46:53;;;;;;;3.53;2.00;;;22.20;62.70;;;;;;10418539;28;20122;-57
2021/06/07 16:51:53;;;;;;;10.70;2.00;;;22.20;63.10;;;;;;10417263;28;20029;-61
2021/06/07 16:56:54;;;;;;;5.32;2.13;;;22.20;63.40;;;;;;10417284;28;20073;-60
2021/06/07 17:01:55;;;;;;;2.90;1.85;;;22.20;63.10;;;;;;10417622;28;20078;-60
2021/06/07 17:06:55;;;;;;;3.45;1.50;;;22.20;62.10;;;;;;10417750;28;20430;-61
2021/06/07 17:11:56;;;;;;;2.75;1.75;;;22.20;62.10;;;;;;10415802;28;20505;-59
2021/06/07 17:16:57;;;;;;;4.32;1.83;;;22.20;62.80;;;;;;10416091;28;20037;-62
2021/06/07 17:21:58;;;;;;;5.85;1.92;;;22.20;62.30;;;;;;10416112;28;20036;-62
2021/06/07 17:27:00;;;;;;;5.97;2.22;;;22.20;62.50;;;;;;10416187;28;20029;-61
2021/06/07 17:32:01;;;;;;;3.25;1.83;;;22.20;62.10;;;;;;10416798;28;20030;-61
2021/06/07 17:37:02;;;;;;;4.10;1.70;;;22.20;61.80;;;;;;10410143;28;20588;-60
2021/06/07 17:42:03;;;;;;;5.53;1.67;;;22.20;61.90;;;;;;10390768;28;20053;-61
2021/06/07 17:47:04;;;;;;;4.10;2.00;;;22.20;62.30;;;;;;10390029;28;20026;-61
2021/06/07 17:52:07;;;;;;;3.13;1.80;;;22.20;62.30;;;;;;10417946;28;20049;-61
2021/06/07 17:57:09;;;;;;;6.85;1.85;;;22.20;62.50;;;;;;10395920;28;20086;-61
2021/06/07 18:02:10;;;;;;;3.10;1.67;;;22.20;62.30;;;;;;10413816;28;20037;-61
2021/06/07 18:07:11;;;;;;;3.50;2.05;;;22.20;62.00;;;;;;10394262;28;20470;-61
2021/06/07 18:12:12;;;;;;;3.80;1.85;;;22.20;62.10;;;;;;10408983;28;20446;-61
2021/06/07 18:17:13;;;;;;;2.67;1.70;;;22.20;61.90;;;;;;10415296;28;20108;-61
2021/06/07 18:22:14;;;;;;;2.65;1.98;;;22.20;62.00;;;;;;10415057;28;20232;-62
2021/06/07 18:27:14;;;;;;;2.63;1.98;;;22.20;62.00;;;;;;10414946;28;20367;-61
2021/06/07 18:32:16;;;;;;;2.60;1.90;;;22.20;62.00;;;;;;10413449;28;20036;-61
2021/06/07 18:37:17;;;;;;;2.88;1.98;;;22.20;62.10;;;;;;10413113;28;20056;-61
2021/06/07 18:42:18;;;;;;;3.13;2.13;;;22.20;62.20;;;;;;10423310;28;20051;-62
2021/06/07 18:47:20;;;;;;;5.05;2.33;;;22.20;62.20;;;;;;10413465;28;20422;-62
2021/06/07 18:52:21;;;;;;;2.40;1.85;;;22.20;62.20;;;;;;10413367;28;20112;-62
2021/06/07 18:57:21;;;;;;;2.30;1.65;;;22.10;62.20;;;;;;10413743;28;20088;-62
2021/06/07 19:02:22;;;;;;;2.85;1.75;;;22.20;62.30;;;;;;10413319;28;20040;-62
2021/06/07 19:07:23;;;;;;;2.95;1.95;;;22.20;62.30;;;;;;10412837;28;20053;-62
2021/06/07 19:12:24;;;;;;;2.92;2.30;;;22.10;62.20;;;;;;10400750;28;20030;-63
2021/06/07 19:17:25;;;;;;;4.32;2.35;;;22.10;62.30;;;;;;10414212;28;20025;-61
2021/06/07 19:22:27;;;;;;;6.97;2.67;;;22.20;63.30;;;;;;10416743;28;20044;-62
2021/06/07 19:27:28;;;;;;;7.82;2.33;;;22.20;63.90;;;;;;10419837;28;20376;-58
2021/06/07 19:32:29;;;;;;;7.55;2.30;;;22.20;63.70;;;;;;10417033;28;20053;-60
2021/06/07 19:37:29;;;;;;;4.47;2.70;;;22.20;64.00;;;;;;10434690;28;20396;-59
2021/06/07 19:42:30;;;;;;;5.85;2.72;;;22.20;63.40;;;;;;10418780;28;20174;-59
2021/06/07 19:47:31;;;;;;;5.28;2.88;;;22.20;63.50;;;;;;10418603;28;20024;-62
2021/06/07 19:52:32;;;;;;;3.33;2.28;;;22.20;63.40;;;;;;10416010;28;20045;-62
2021/06/07 19:57:32;;;;;;;6.28;2.67;;;22.20;63.40;;;;;;10418376;28;20072;-61
2021/06/07 20:02:33;;;;;;;3.83;2.63;;;22.20;64.00;;;;;;10418529;28;20038;-61
2021/06/07 20:07:36;;;;;;;4.82;3.15;;;22.20;63.70;;;;;;10415512;28;20476;-61
2021/06/07 20:12:36;;;;;;;3.10;2.65;;;22.20;63.70;;;;;;10418970;28;20034;-61
2021/06/07 20:17:37;;;;;;;4.32;2.35;;;22.10;63.70;;;;;;10418583;28;20453;-61
2021/06/07 20:22:38;;;;;;;5.45;2.72;;;22.20;63.60;;;;;;10419388;28;20037;-62
2021/06/07 20:27:38;;;;;;;2.90;2.60;;;22.10;63.50;;;;;;10419363;28;20061;-62
2021/06/07 20:32:40;;;;;;;4.47;2.90;;;22.10;63.40;;;;;;10417503;28;20035;-62
2021/06/07 20:37:44;;;;;;;3.40;2.83;;;22.10;63.40;;;;;;10418161;28;20374;-62
2021/06/07 20:42:46;;;;;;;4.03;2.40;;;22.10;63.50;;;;;;10427641;28;20049;-61
2021/06/07 20:47:49;;;;;;;5.38;2.67;;;22.10;63.60;;;;;;10418904;28;20036;-62
2021/06/07 20:52:52;;;;;;;4.85;3.42;;;22.10;63.60;;;;;;10418479;28;20048;-62
2021/06/07 20:57:54;;;;;;;4.53;3.60;;;22.10;63.50;;;;;;10418497;28;20108;-62
2021/06/07 21:02:55;;;;;;;4.10;2.78;;;22.10;63.50;;;;;;10417774;28;20109;-62
2021/06/07 21:07:56;;;;;;;5.15;3.38;;;22.10;63.50;;;;;;10416454;28;20033;-62
2021/06/07 21:12:57;;;;;;;3.83;3.20;;;22.10;63.50;;;;;;10417257;28;20063;-62
2021/06/07 21:17:58;;;;;;;4.65;2.95;;;22.10;63.40;;;;;;10417680;28;20432;-62
2021/06/07 21:22:59;;;;;;;4.95;3.08;;;22.00;63.30;;;;;;10417119;28;20120;-61
2021/06/07 21:27:59;;;;;;;3.35;3.00;;;22.10;63.30;;;;;;10417133;28;20112;-61
2021/06/07 21:33:00;;;;;;;4.18;3.03;;;22.10;63.40;;;;;;10416636;28;20112;-61
2021/06/07 21:38:01;;;;;;;3.15;2.85;;;22.10;63.40;;;;;;10416768;28;20099;-62
2021/06/07 21:43:01;;;;;;;3.72;3.10;;;22.10;63.50;;;;;;10421129;28;20045;-61
2021/06/07 21:48:03;;;;;;;4.90;3.47;;;22.00;63.50;;;;;;10415544;28;20436;-63
2021/06/07 21:53:03;;;;;;;3.85;3.45;;;22.00;63.40;;;;;;10416065;28;20382;-62
2021/06/07 21:58:04;;;;;;;5.25;3.10;;;22.00;63.40;;;;;;10414621;28;20029;-62
2021/06/07 22:03:05;;;;;;;4.40;3.45;;;22.00;63.40;;;;;;10415143;28;20084;-62
2021/06/07 22:08:05;;;;;;;4.10;3.70;;;22.00;63.40;;;;;;10415385;28;20450;-61
2021/06/07 22:13:06;;;;;;;4.20;3.38;;;22.00;63.40;;;;;;10402396;28;20033;-62
2021/06/07 22:18:07;;;;;;;3.78;3.45;;;22.00;63.40;;;;;;10415295;28;20045;-62
2021/06/07 22:23:11;;;;;;;4.57;3.95;;;22.00;63.50;;;;;;10415140;28;20035;-61
2021/06/07 22:28:12;;;;;;;4.68;3.97;;;22.00;63.50;;;;;;10414588;28;20044;-61
2021/06/07 22:33:12;;;;;;;4.10;3.70;;;22.00;63.50;;;;;;10413698;28;20040;-62
2021/06/07 22:38:16;;;;;;;5.50;3.67;;;22.00;63.50;;;;;;10414294;28;20359;-61
2021/06/07 22:43:16;;;;;;;3.60;3.10;;;22.00;63.50;;;;;;10422794;28;20076;-62
2021/06/07 22:48:17;;;;;;;5.63;3.83;;;22.00;63.50;;;;;;10414807;28;20105;-62
2021/06/07 22:53:18;;;;;;;3.88;3.53;;;22.00;63.50;;;;;;10414172;28;20040;-59
2021/06/07 22:58:19;;;;;;;6.20;4.07;;;22.00;63.40;;;;;;10413480;28;20028;-62
2021/06/07 23:03:19;;;;;;;5.35;3.63;;;22.00;63.40;;;;;;10429437;28;21394;-62
2021/06/07 23:08:20;;;;;;;5.00;3.95;;;22.00;64.00;;;;;;10413421;28;20032;-62
2021/06/07 23:13:21;;;;;;;5.72;3.35;;;22.00;63.40;;;;;;10400375;28;20108;-60
2021/06/07 23:18:22;;;;;;;3.80;3.40;;;22.00;63.30;;;;;;10413748;28;20036;-62
2021/06/07 23:23:23;;;;;;;4.65;4.18;;;22.00;63.30;;;;;;10414435;28;20032;-62
2021/06/07 23:28:26;;;;;;;5.40;3.80;;;22.00;63.30;;;;;;10413343;28;20482;-62
2021/06/07 23:33:26;;;;;;;3.83;3.42;;;21.90;63.30;;;;;;10413537;28;20441;-61
2021/06/07 23:38:27;;;;;;;4.00;3.60;;;21.90;63.20;;;;;;10413243;28;20061;-62
2021/06/07 23:43:28;;;;;;;4.95;3.55;;;21.90;63.20;;;;;;10422119;28;20061;-62
2021/06/07 23:48:28;;;;;;;4.13;3.72;;;21.90;63.20;;;;;;10413235;28;20521;-62
2021/06/07 23:53:29;;;;;;;4.68;3.75;;;21.90;63.10;;;;;;10413306;28;20033;-62
2021/06/07 23:58:30;;;;;;;5.05;4.30;;;21.90;63.10;;;;;;10412836;28;20030;-61
